PTR2217 CYXU-CYKF
Flight info
| Callsign | PTR2217 |
|---|---|
| Flight time | 0h 11m |
| Altitude | 9000 |
| Route | TETOS |
| Aircraft | DH8D/M-SDE2E3FGRY/H |
Departure
| Time | 2026-04-25 00:29 |
|---|---|
| Airport | London International Airport (CYXU) |
Arrival
| Time | 2026-04-25 00:40 |
|---|---|
| Airport | Region of Waterloo International Airport (CYKF) |
| Time | Latitude | Longitude | Altitude | Speed | Heading |
|---|---|---|---|---|---|
| 2026-04-25 00:07 | 43.02989 | -81.14954 | 908 ft | 0 kts | 227° |
| 2026-04-25 00:19 | 43.02989 | -81.14955 | 908 ft | 0 kts | 227° |
| 2026-04-25 00:19 | 43.02998 | -81.14941 | 908 ft | 7 kts | 228° |
| 2026-04-25 00:20 | 43.03026 | -81.14899 | 908 ft | 0 kts | 255° |
| 2026-04-25 00:20 | 43.03022 | -81.14874 | 908 ft | 4 kts | 316° |
| 2026-04-25 00:20 | 43.03026 | -81.14879 | 908 ft | 0 kts | 319° |
| 2026-04-25 00:21 | 43.03081 | -81.14947 | 908 ft | 21 kts | 319° |
| 2026-04-25 00:21 | 43.03243 | -81.15138 | 911 ft | 38 kts | 318° |
| 2026-04-25 00:21 | 43.03406 | -81.15337 | 913 ft | 35 kts | 319° |
| 2026-04-25 00:21 | 43.03613 | -81.15583 | 917 ft | 30 kts | 320° |
| 2026-04-25 00:22 | 43.03700 | -81.15767 | 916 ft | 29 kts | 260° |
| 2026-04-25 00:22 | 43.03661 | -81.16030 | 915 ft | 15 kts | 259° |
| 2026-04-25 00:22 | 43.03644 | -81.16141 | 915 ft | 8 kts | 255° |
| 2026-04-25 00:22 | 43.03646 | -81.16257 | 915 ft | 13 kts | 339° |
| 2026-04-25 00:23 | 43.03678 | -81.16267 | 915 ft | 0 kts | 347° |
| 2026-04-25 00:24 | 43.03714 | -81.16279 | 915 ft | 6 kts | 347° |
| 2026-04-25 00:24 | 43.03715 | -81.16280 | 915 ft | 0 kts | 347° |
| 2026-04-25 00:28 | 43.03733 | -81.16285 | 914 ft | 11 kts | 347° |
| 2026-04-25 00:28 | 43.03813 | -81.16289 | 913 ft | 12 kts | 78° |
| 2026-04-25 00:28 | 43.03838 | -81.16135 | 915 ft | 30 kts | 79° |
| 2026-04-25 00:29 | 43.03944 | -81.15382 | 919 ft | 137 kts | 79° |
| 2026-04-25 00:29 | 43.04134 | -81.13814 | 1366 ft | 187 kts | 84° |
| 2026-04-25 00:29 | 43.04318 | -81.11969 | 2310 ft | 212 kts | 82° |
| 2026-04-25 00:29 | 43.04626 | -81.09905 | 3264 ft | 235 kts | 79° |
| 2026-04-25 00:30 | 43.04951 | -81.07700 | 3667 ft | 230 kts | 79° |
| 2026-04-25 00:30 | 43.05262 | -81.05608 | 3803 ft | 222 kts | 79° |
| 2026-04-25 00:30 | 43.05570 | -81.03528 | 3856 ft | 219 kts | 79° |
| 2026-04-25 00:30 | 43.05874 | -81.01446 | 3894 ft | 234 kts | 79° |
| 2026-04-25 00:31 | 43.06200 | -80.99204 | 3900 ft | 245 kts | 79° |
| 2026-04-25 00:31 | 43.06538 | -80.96895 | 3896 ft | 249 kts | 79° |
| 2026-04-25 00:31 | 43.06988 | -80.94586 | 3875 ft | 252 kts | 64° |
| 2026-04-25 00:31 | 43.08078 | -80.92770 | 4155 ft | 242 kts | 44° |
| 2026-04-25 00:32 | 43.09275 | -80.91152 | 4352 ft | 239 kts | 44° |
| 2026-04-25 00:32 | 43.10448 | -80.89558 | 4498 ft | 238 kts | 44° |
| 2026-04-25 00:32 | 43.11642 | -80.87936 | 4628 ft | 239 kts | 44° |
| 2026-04-25 00:32 | 43.12428 | -80.86866 | 4719 ft | 239 kts | 44° |
| 2026-04-25 00:33 | 43.13989 | -80.84737 | 4884 ft | 239 kts | 44° |
| 2026-04-25 00:33 | 43.15203 | -80.83159 | 4955 ft | 242 kts | 39° |
| 2026-04-25 00:33 | 43.16525 | -80.81698 | 4976 ft | 242 kts | 37° |
| 2026-04-25 00:33 | 43.17838 | -80.80281 | 4983 ft | 243 kts | 37° |
| 2026-04-25 00:34 | 43.19167 | -80.78851 | 4985 ft | 243 kts | 37° |
| 2026-04-25 00:34 | 43.20519 | -80.77397 | 4985 ft | 244 kts | 37° |
| 2026-04-25 00:34 | 43.21860 | -80.75954 | 4985 ft | 245 kts | 37° |
| 2026-04-25 00:34 | 43.23209 | -80.74503 | 4985 ft | 245 kts | 37° |
| 2026-04-25 00:35 | 43.24544 | -80.73065 | 4986 ft | 246 kts | 37° |
| 2026-04-25 00:35 | 43.25445 | -80.72094 | 4986 ft | 246 kts | 37° |
| 2026-04-25 00:35 | 43.27247 | -80.70152 | 4985 ft | 247 kts | 37° |
| 2026-04-25 00:35 | 43.28601 | -80.68691 | 4986 ft | 247 kts | 37° |
| 2026-04-25 00:36 | 43.29950 | -80.67237 | 4985 ft | 247 kts | 37° |
| 2026-04-25 00:36 | 43.31305 | -80.65775 | 4986 ft | 247 kts | 37° |
| 2026-04-25 00:36 | 43.32664 | -80.64305 | 4985 ft | 247 kts | 37° |
| 2026-04-25 00:36 | 43.34019 | -80.62842 | 4975 ft | 247 kts | 37° |
| 2026-04-25 00:37 | 43.35379 | -80.61375 | 4784 ft | 249 kts | 37° |
| 2026-04-25 00:37 | 43.36749 | -80.59895 | 4503 ft | 255 kts | 37° |
| 2026-04-25 00:37 | 43.38155 | -80.58377 | 4172 ft | 254 kts | 37° |
| 2026-04-25 00:37 | 43.39528 | -80.56826 | 3819 ft | 259 kts | 43° |
| 2026-04-25 00:38 | 43.40510 | -80.54757 | 3500 ft | 261 kts | 64° |
| 2026-04-25 00:38 | 43.41282 | -80.52477 | 3131 ft | 255 kts | 65° |
| 2026-04-25 00:38 | 43.41994 | -80.50351 | 2787 ft | 236 kts | 65° |
| 2026-04-25 00:38 | 43.42643 | -80.48413 | 2478 ft | 208 kts | 65° |
| 2026-04-25 00:39 | 43.43210 | -80.46725 | 2257 ft | 185 kts | 65° |
| 2026-04-25 00:39 | 43.43729 | -80.45176 | 1989 ft | 166 kts | 66° |
| 2026-04-25 00:39 | 43.44188 | -80.43803 | 1777 ft | 157 kts | 67° |
| 2026-04-25 00:39 | 43.44643 | -80.42416 | 1576 ft | 159 kts | 66° |
| 2026-04-25 00:40 | 43.45106 | -80.41019 | 1375 ft | 161 kts | 66° |
| 2026-04-25 00:40 | 43.45582 | -80.39623 | 1177 ft | 161 kts | 66° |
| 2026-04-25 00:40 | 43.46028 | -80.38271 | 1039 ft | 130 kts | 62° |
| 2026-04-25 00:40 | 43.46237 | -80.37659 | 1047 ft | 38 kts | 65° |
| 2026-04-25 00:41 | 43.46348 | -80.37322 | 1052 ft | 18 kts | 66° |
| 2026-04-25 00:41 | 43.46353 | -80.37183 | 1053 ft | 22 kts | 149° |
| 2026-04-25 00:41 | 43.46274 | -80.37186 | 1052 ft | 5 kts | 193° |
| 2026-04-25 00:41 | 43.46216 | -80.37234 | 1052 ft | 9 kts | 242° |
| 2026-04-25 00:42 | 43.46161 | -80.37399 | 1049 ft | 28 kts | 244° |
| 2026-04-25 00:42 | 43.46077 | -80.37645 | 1044 ft | 33 kts | 242° |
| 2026-04-25 00:42 | 43.45961 | -80.37986 | 1038 ft | 44 kts | 245° |
| 2026-04-25 00:42 | 43.45854 | -80.38310 | 1035 ft | 28 kts | 245° |
| 2026-04-25 00:43 | 43.45787 | -80.38505 | 1035 ft | 16 kts | 245° |
| 2026-04-25 00:43 | 43.45717 | -80.38554 | 1035 ft | 14 kts | 165° |
| 2026-04-25 00:43 | 43.45670 | -80.38580 | 1035 ft | 0 kts | 214° |